sensor_id;sensor_type;location;lat;lon;timestamp;temperature;humidity
12119;DHT22;6123;48.864;9.200;2022-09-09T00:04:37;16.40;99.90
12119;DHT22;6123;48.864;9.200;2022-09-09T00:07:22;16.30;99.90
12119;DHT22;6123;48.864;9.200;2022-09-09T00:13:03;16.20;99.90
12119;DHT22;6123;48.864;9.200;2022-09-09T00:18:20;16.00;99.90
12119;DHT22;6123;48.864;9.200;2022-09-09T00:23:27;16.20;99.90
12119;DHT22;6123;48.864;9.200;2022-09-09T00:26:16;16.30;99.90
12119;DHT22;6123;48.864;9.200;2022-09-09T00:29:05;16.30;99.90
12119;DHT22;6123;48.864;9.200;2022-09-09T00:31:35;16.30;99.90
12119;DHT22;6123;48.864;9.200;2022-09-09T00:34:23;16.30;99.90
12119;DHT22;6123;48.864;9.200;2022-09-09T00:36:53;16.30;99.90
12119;DHT22;6123;48.864;9.200;2022-09-09T00:39:36;16.30;99.90
12119;DHT22;6123;48.864;9.200;2022-09-09T00:47:44;16.20;99.90
12119;DHT22;6123;48.864;9.200;2022-09-09T00:58:31;16.20;99.90
12119;DHT22;6123;48.864;9.200;2022-09-09T01:01:05;16.30;99.90
12119;DHT22;6123;48.864;9.200;2022-09-09T01:03:42;16.30;99.90
12119;DHT22;6123;48.864;9.200;2022-09-09T01:06:34;16.30;99.90
12119;DHT22;6123;48.864;9.200;2022-09-09T01:09:25;16.40;99.90
12119;DHT22;6123;48.864;9.200;2022-09-09T01:12:25;16.40;99.90
12119;DHT22;6123;48.864;9.200;2022-09-09T01:15:16;16.30;99.90
12119;DHT22;6123;48.864;9.200;2022-09-09T01:18:05;16.30;99.90
12119;DHT22;6123;48.864;9.200;2022-09-09T01:20:44;16.30;99.90
12119;DHT22;6123;48.864;9.200;2022-09-09T01:28:48;16.30;99.90
12119;DHT22;6123;48.864;9.200;2022-09-09T01:31:28;16.30;99.90
12119;DHT22;6123;48.864;9.200;2022-09-09T01:33:58;16.40;99.90
12119;DHT22;6123;48.864;9.200;2022-09-09T01:36:37;16.40;99.90
12119;DHT22;6123;48.864;9.200;2022-09-09T01:39:04;16.60;99.90
12119;DHT22;6123;48.864;9.200;2022-09-09T01:41:30;16.50;99.90
12119;DHT22;6123;48.864;9.200;2022-09-09T01:43:56;16.60;99.90
12119;DHT22;6123;48.864;9.200;2022-09-09T01:46:23;16.60;99.90
12119;DHT22;6123;48.864;9.200;2022-09-09T01:48:53;16.60;99.90
12119;DHT22;6123;48.864;9.200;2022-09-09T01:51:20;16.50;99.90
12119;DHT22;6123;48.864;9.200;2022-09-09T01:53:48;16.50;99.90
12119;DHT22;6123;48.864;9.200;2022-09-09T02:06:58;16.30;99.90
12119;DHT22;6123;48.864;9.200;2022-09-09T02:09:25;16.10;99.90
12119;DHT22;6123;48.864;9.200;2022-09-09T02:12:08;16.10;99.90
12119;DHT22;6123;48.864;9.200;2022-09-09T02:14:41;16.00;99.90
12119;DHT22;6123;48.864;9.200;2022-09-09T02:17:10;15.90;99.90
12119;DHT22;6123;48.864;9.200;2022-09-09T02:19:49;15.90;99.90
12119;DHT22;6123;48.864;9.200;2022-09-09T02:22:18;16.00;99.90
12119;DHT22;6123;48.864;9.200;2022-09-09T02:24:45;15.90;99.90
12119;DHT22;6123;48.864;9.200;2022-09-09T02:27:13;16.10;99.90
12119;DHT22;6123;48.864;9.200;2022-09-09T02:29:42;16.10;99.90
12119;DHT22;6123;48.864;9.200;2022-09-09T02:32:17;16.20;99.90
12119;DHT22;6123;48.864;9.200;2022-09-09T02:34:47;16.30;99.90
12119;DHT22;6123;48.864;9.200;2022-09-09T02:37:17;16.00;99.90
12119;DHT22;6123;48.864;9.200;2022-09-09T02:39:47;15.70;99.90
12119;DHT22;6123;48.864;9.200;2022-09-09T02:42:12;15.70;99.90
12119;DHT22;6123;48.864;9.200;2022-09-09T02:44:40;15.70;99.90
12119;DHT22;6123;48.864;9.200;2022-09-09T02:50:17;16.00;99.90
12119;DHT22;6123;48.864;9.200;2022-09-09T02:58:05;16.00;99.90
12119;DHT22;6123;48.864;9.200;2022-09-09T03:00:32;15.80;99.90
12119;DHT22;6123;48.864;9.200;2022-09-09T03:03:01;15.60;99.90
12119;DHT22;6123;48.864;9.200;2022-09-09T03:05:32;15.50;99.90
12119;DHT22;6123;48.864;9.200;2022-09-09T03:07:58;15.40;99.90
12119;DHT22;6123;48.864;9.200;2022-09-09T03:10:24;15.40;99.90
12119;DHT22;6123;48.864;9.200;2022-09-09T03:12:52;15.30;99.90
12119;DHT22;6123;48.864;9.200;2022-09-09T03:15:21;15.20;99.90
12119;DHT22;6123;48.864;9.200;2022-09-09T03:17:48;15.30;99.90
12119;DHT22;6123;48.864;9.200;2022-09-09T03:20:14;15.40;99.90
12119;DHT22;6123;48.864;9.200;2022-09-09T03:22:40;15.30;99.90
12119;DHT22;6123;48.864;9.200;2022-09-09T03:25:06;15.20;99.90
12119;DHT22;6123;48.864;9.200;2022-09-09T03:27:34;15.10;99.90
12119;DHT22;6123;48.864;9.200;2022-09-09T03:30:00;15.20;99.90
12119;DHT22;6123;48.864;9.200;2022-09-09T03:32:29;15.10;99.90
12119;DHT22;6123;48.864;9.200;2022-09-09T03:34:56;15.30;99.90
12119;DHT22;6123;48.864;9.200;2022-09-09T03:37:22;15.40;99.90
12119;DHT22;6123;48.864;9.200;2022-09-09T03:39:48;15.50;99.90
12119;DHT22;6123;48.864;9.200;2022-09-09T03:42:14;15.30;99.90
12119;DHT22;6123;48.864;9.200;2022-09-09T03:44:41;15.30;99.90
12119;DHT22;6123;48.864;9.200;2022-09-09T03:47:07;15.40;99.90
12119;DHT22;6123;48.864;9.200;2022-09-09T03:49:35;15.50;99.90
12119;DHT22;6123;48.864;9.200;2022-09-09T03:52:01;15.30;99.90
12119;DHT22;6123;48.864;9.200;2022-09-09T03:54:29;15.20;99.90
12119;DHT22;6123;48.864;9.200;2022-09-09T03:56:57;15.20;99.90
12119;DHT22;6123;48.864;9.200;2022-09-09T03:59:25;15.40;99.90
12119;DHT22;6123;48.864;9.200;2022-09-09T04:01:54;15.30;99.90
12119;DHT22;6123;48.864;9.200;2022-09-09T04:04:20;15.30;99.90
12119;DHT22;6123;48.864;9.200;2022-09-09T04:06:48;15.20;99.90
12119;DHT22;6123;48.864;9.200;2022-09-09T04:09:14;15.10;99.90
12119;DHT22;6123;48.864;9.200;2022-09-09T04:11:40;15.20;99.90
12119;DHT22;6123;48.864;9.200;2022-09-09T04:14:08;15.30;99.90
12119;DHT22;6123;48.864;9.200;2022-09-09T04:16:34;15.30;99.90
12119;DHT22;6123;48.864;9.200;2022-09-09T04:19:02;15.40;99.90
12119;DHT22;6123;48.864;9.200;2022-09-09T04:21:30;15.40;99.90
12119;DHT22;6123;48.864;9.200;2022-09-09T04:23:55;15.40;99.90
12119;DHT22;6123;48.864;9.200;2022-09-09T04:26:22;15.40;99.90
12119;DHT22;6123;48.864;9.200;2022-09-09T04:28:48;15.40;99.90
12119;DHT22;6123;48.864;9.200;2022-09-09T04:31:19;15.60;99.90
12119;DHT22;6123;48.864;9.200;2022-09-09T04:33:46;15.60;99.90
12119;DHT22;6123;48.864;9.200;2022-09-09T04:36:12;15.60;99.90
12119;DHT22;6123;48.864;9.200;2022-09-09T04:38:38;15.80;99.90
12119;DHT22;6123;48.864;9.200;2022-09-09T04:41:04;15.70;99.90
12119;DHT22;6123;48.864;9.200;2022-09-09T04:43:30;15.70;99.90
12119;DHT22;6123;48.864;9.200;2022-09-09T04:45:56;15.80;99.90
12119;DHT22;6123;48.864;9.200;2022-09-09T04:48:22;15.60;99.90
12119;DHT22;6123;48.864;9.200;2022-09-09T04:50:58;15.70;99.90
12119;DHT22;6123;48.864;9.200;2022-09-09T04:53:25;15.50;99.90
12119;DHT22;6123;48.864;9.200;2022-09-09T04:55:53;15.50;99.90
12119;DHT22;6123;48.864;9.200;2022-09-09T04:58:26;15.50;99.90
12119;DHT22;6123;48.864;9.200;2022-09-09T05:00:52;15.50;99.90
12119;DHT22;6123;48.864;9.200;2022-09-09T05:03:18;15.50;99.90
12119;DHT22;6123;48.864;9.200;2022-09-09T05:05:44;15.50;99.90
12119;DHT22;6123;48.864;9.200;2022-09-09T05:08:10;15.50;99.90
12119;DHT22;6123;48.864;9.200;2022-09-09T05:10:38;15.50;99.90
12119;DHT22;6123;48.864;9.200;2022-09-09T05:13:04;15.50;99.90
12119;DHT22;6123;48.864;9.200;2022-09-09T05:15:32;15.50;99.90
12119;DHT22;6123;48.864;9.200;2022-09-09T05:17:59;15.50;99.90
12119;DHT22;6123;48.864;9.200;2022-09-09T05:20:26;15.50;99.90
12119;DHT22;6123;48.864;9.200;2022-09-09T05:22:53;15.60;99.90
12119;DHT22;6123;48.864;9.200;2022-09-09T05:25:20;15.70;99.90
12119;DHT22;6123;48.864;9.200;2022-09-09T05:27:45;15.60;99.90
12119;DHT22;6123;48.864;9.200;2022-09-09T05:30:11;15.50;99.90
12119;DHT22;6123;48.864;9.200;2022-09-09T05:32:39;15.50;99.90
12119;DHT22;6123;48.864;9.200;2022-09-09T05:35:05;15.60;99.90
12119;DHT22;6123;48.864;9.200;2022-09-09T05:37:31;15.60;99.90
12119;DHT22;6123;48.864;9.200;2022-09-09T05:39:57;15.70;99.90
12119;DHT22;6123;48.864;9.200;2022-09-09T05:42:28;15.70;99.90
12119;DHT22;6123;48.864;9.200;2022-09-09T05:44:54;15.80;99.90
12119;DHT22;6123;48.864;9.200;2022-09-09T05:47:20;15.80;99.90
12119;DHT22;6123;48.864;9.200;2022-09-09T05:49:47;15.50;99.90
12119;DHT22;6123;48.864;9.200;2022-09-09T05:52:17;15.40;99.90
12119;DHT22;6123;48.864;9.200;2022-09-09T05:54:45;15.60;99.90
12119;DHT22;6123;48.864;9.200;2022-09-09T05:57:10;15.90;99.90
12119;DHT22;6123;48.864;9.200;2022-09-09T05:59:36;15.80;99.90
12119;DHT22;6123;48.864;9.200;2022-09-09T06:02:04;15.80;99.90
12119;DHT22;6123;48.864;9.200;2022-09-09T06:04:29;15.90;99.90
12119;DHT22;6123;48.864;9.200;2022-09-09T06:06:55;16.00;99.90
12119;DHT22;6123;48.864;9.200;2022-09-09T06:09:21;16.10;99.90
12119;DHT22;6123;48.864;9.200;2022-09-09T06:11:47;16.20;99.90
12119;DHT22;6123;48.864;9.200;2022-09-09T06:14:15;16.20;99.90
12119;DHT22;6123;48.864;9.200;2022-09-09T06:16:40;16.20;99.90
12119;DHT22;6123;48.864;9.200;2022-09-09T06:19:09;16.30;99.90
12119;DHT22;6123;48.864;9.200;2022-09-09T06:21:36;16.40;99.90
12119;DHT22;6123;48.864;9.200;2022-09-09T06:24:03;16.40;99.90
12119;DHT22;6123;48.864;9.200;2022-09-09T06:26:34;16.50;99.90
12119;DHT22;6123;48.864;9.200;2022-09-09T06:29:04;16.50;99.90
12119;DHT22;6123;48.864;9.200;2022-09-09T06:31:32;16.50;99.90
12119;DHT22;6123;48.864;9.200;2022-09-09T06:34:00;16.60;99.90
12119;DHT22;6123;48.864;9.200;2022-09-09T06:36:36;16.60;99.90
12119;DHT22;6123;48.864;9.200;2022-09-09T06:39:02;16.70;99.90
12119;DHT22;6123;48.864;9.200;2022-09-09T06:41:29;16.70;99.90
12119;DHT22;6123;48.864;9.200;2022-09-09T06:43:55;16.80;99.90
12119;DHT22;6123;48.864;9.200;2022-09-09T06:46:23;16.70;99.90
12119;DHT22;6123;48.864;9.200;2022-09-09T06:48:52;16.80;99.90
12119;DHT22;6123;48.864;9.200;2022-09-09T06:51:21;16.90;99.90
12119;DHT22;6123;48.864;9.200;2022-09-09T06:53:50;16.90;99.90
12119;DHT22;6123;48.864;9.200;2022-09-09T06:58:44;17.00;99.90
12119;DHT22;6123;48.864;9.200;2022-09-09T07:01:12;17.00;99.90
12119;DHT22;6123;48.864;9.200;2022-09-09T07:03:39;17.30;99.90
12119;DHT22;6123;48.864;9.200;2022-09-09T07:06:05;17.20;99.90
12119;DHT22;6123;48.864;9.200;2022-09-09T07:08:36;17.40;99.90
12119;DHT22;6123;48.864;9.200;2022-09-09T07:11:04;17.50;99.90
12119;DHT22;6123;48.864;9.200;2022-09-09T07:13:35;17.60;99.90
12119;DHT22;6123;48.864;9.200;2022-09-09T07:16:05;17.90;99.90
12119;DHT22;6123;48.864;9.200;2022-09-09T07:18:31;18.00;99.90
12119;DHT22;6123;48.864;9.200;2022-09-09T07:20:56;18.20;99.90
12119;DHT22;6123;48.864;9.200;2022-09-09T07:23:23;18.30;99.90
12119;DHT22;6123;48.864;9.200;2022-09-09T07:25:49;18.30;99.90
12119;DHT22;6123;48.864;9.200;2022-09-09T07:28:16;18.20;99.90
12119;DHT22;6123;48.864;9.200;2022-09-09T07:30:56;18.20;99.90
12119;DHT22;6123;48.864;9.200;2022-09-09T07:33:23;18.20;99.90
12119;DHT22;6123;48.864;9.200;2022-09-09T07:35:49;18.30;99.90
12119;DHT22;6123;48.864;9.200;2022-09-09T07:40:42;18.30;99.90
12119;DHT22;6123;48.864;9.200;2022-09-09T07:45:37;18.50;99.90
12119;DHT22;6123;48.864;9.200;2022-09-09T07:48:03;18.40;99.90
12119;DHT22;6123;48.864;9.200;2022-09-09T07:50:29;18.50;99.90
12119;DHT22;6123;48.864;9.200;2022-09-09T07:52:55;18.50;99.90
12119;DHT22;6123;48.864;9.200;2022-09-09T07:55:21;18.70;99.90
12119;DHT22;6123;48.864;9.200;2022-09-09T07:57:50;18.70;99.90
12119;DHT22;6123;48.864;9.200;2022-09-09T08:00:16;18.60;99.90
12119;DHT22;6123;48.864;9.200;2022-09-09T08:02:42;19.00;99.90
12119;DHT22;6123;48.864;9.200;2022-09-09T08:05:08;19.10;99.90
12119;DHT22;6123;48.864;9.200;2022-09-09T08:07:35;19.20;99.90
12119;DHT22;6123;48.864;9.200;2022-09-09T08:10:02;19.40;99.90
12119;DHT22;6123;48.864;9.200;2022-09-09T08:12:28;19.50;99.90
12119;DHT22;6123;48.864;9.200;2022-09-09T08:14:54;19.40;99.90
12119;DHT22;6123;48.864;9.200;2022-09-09T08:17:20;19.40;99.90
12119;DHT22;6123;48.864;9.200;2022-09-09T08:19:45;19.50;99.90
12119;DHT22;6123;48.864;9.200;2022-09-09T08:22:13;19.50;99.90
12119;DHT22;6123;48.864;9.200;2022-09-09T08:24:39;19.70;99.90
12119;DHT22;6123;48.864;9.200;2022-09-09T08:27:05;20.30;99.90
12119;DHT22;6123;48.864;9.200;2022-09-09T08:29:33;20.30;99.90
12119;DHT22;6123;48.864;9.200;2022-09-09T08:34:27;20.20;99.90
12119;DHT22;6123;48.864;9.200;2022-09-09T08:36:53;20.20;99.90
12119;DHT22;6123;48.864;9.200;2022-09-09T08:39:21;20.10;99.90
12119;DHT22;6123;48.864;9.200;2022-09-09T08:51:46;19.70;99.90
12119;DHT22;6123;48.864;9.200;2022-09-09T08:54:13;19.70;99.90
12119;DHT22;6123;48.864;9.200;2022-09-09T08:56:39;20.10;99.90
12119;DHT22;6123;48.864;9.200;2022-09-09T09:10:09;20.70;99.90
12119;DHT22;6123;48.864;9.200;2022-09-09T09:12:45;20.80;99.90
12119;DHT22;6123;48.864;9.200;2022-09-09T09:15:35;20.80;99.90
12119;DHT22;6123;48.864;9.200;2022-09-09T09:18:02;20.80;99.90
12119;DHT22;6123;48.864;9.200;2022-09-09T09:23:26;20.90;99.90
12119;DHT22;6123;48.864;9.200;2022-09-09T09:25:59;20.80;99.90
12119;DHT22;6123;48.864;9.200;2022-09-09T09:28:29;20.70;99.90
12119;DHT22;6123;48.864;9.200;2022-09-09T09:31:12;20.80;99.90
12119;DHT22;6123;48.864;9.200;2022-09-09T09:33:52;20.60;99.90
12119;DHT22;6123;48.864;9.200;2022-09-09T09:36:19;20.60;99.90
12119;DHT22;6123;48.864;9.200;2022-09-09T09:38:57;20.50;99.90
12119;DHT22;6123;48.864;9.200;2022-09-09T09:41:34;20.50;99.90
12119;DHT22;6123;48.864;9.200;2022-09-09T09:44:01;20.40;99.90
12119;DHT22;6123;48.864;9.200;2022-09-09T09:46:27;20.20;99.90
12119;DHT22;6123;48.864;9.200;2022-09-09T09:49:05;20.30;99.90
12119;DHT22;6123;48.864;9.200;2022-09-09T09:51:34;20.50;99.90
12119;DHT22;6123;48.864;9.200;2022-09-09T09:56:41;20.70;99.90
12119;DHT22;6123;48.864;9.200;2022-09-09T09:59:35;20.90;99.90
12119;DHT22;6123;48.864;9.200;2022-09-09T10:02:16;21.00;99.90
12119;DHT22;6123;48.864;9.200;2022-09-09T10:04:43;21.30;99.90
12119;DHT22;6123;48.864;9.200;2022-09-09T10:07:20;21.40;99.90
12119;DHT22;6123;48.864;9.200;2022-09-09T10:09:56;21.40;99.90
12119;DHT22;6123;48.864;9.200;2022-09-09T10:12:52;21.50;99.90
12119;DHT22;6123;48.864;9.200;2022-09-09T10:18:13;22.00;99.90
12119;DHT22;6123;48.864;9.200;2022-09-09T10:28:54;21.90;99.90
12119;DHT22;6123;48.864;9.200;2022-09-09T10:35:09;22.00;99.90
12119;DHT22;6123;48.864;9.200;2022-09-09T10:37:57;22.10;99.90
12119;DHT22;6123;48.864;9.200;2022-09-09T10:43:46;22.50;99.90
12119;DHT22;6123;48.864;9.200;2022-09-09T10:52:36;22.80;99.90
12119;DHT22;6123;48.864;9.200;2022-09-09T10:57:48;22.70;99.90
12119;DHT22;6123;48.864;9.200;2022-09-09T11:00:20;22.50;99.90
12119;DHT22;6123;48.864;9.200;2022-09-09T11:02:55;22.20;99.90
12119;DHT22;6123;48.864;9.200;2022-09-09T11:10:46;21.60;99.90
12119;DHT22;6123;48.864;9.200;2022-09-09T11:13:38;21.20;99.90
12119;DHT22;6123;48.864;9.200;2022-09-09T11:18:41;20.60;99.90
12119;DHT22;6123;48.864;9.200;2022-09-09T11:21:17;20.70;99.90
12119;DHT22;6123;48.864;9.200;2022-09-09T11:23:59;19.90;99.90
12119;DHT22;6123;48.864;9.200;2022-09-09T11:26:38;17.90;99.90
12119;DHT22;6123;48.864;9.200;2022-09-09T11:29:35;17.00;99.90
12119;DHT22;6123;48.864;9.200;2022-09-09T11:32:20;16.80;99.90
12119;DHT22;6123;48.864;9.200;2022-09-09T11:34:56;17.00;99.90
12119;DHT22;6123;48.864;9.200;2022-09-09T11:40:27;18.50;99.90
12119;DHT22;6123;48.864;9.200;2022-09-09T11:43:15;18.00;99.90
12119;DHT22;6123;48.864;9.200;2022-09-09T11:45:52;18.10;99.90
12119;DHT22;6123;48.864;9.200;2022-09-09T11:48:29;18.20;99.90
12119;DHT22;6123;48.864;9.200;2022-09-09T11:51:08;18.20;99.90
12119;DHT22;6123;48.864;9.200;2022-09-09T11:53:35;18.30;99.90
12119;DHT22;6123;48.864;9.200;2022-09-09T11:56:13;18.30;99.90
12119;DHT22;6123;48.864;9.200;2022-09-09T11:59:06;18.40;99.90
12119;DHT22;6123;48.864;9.200;2022-09-09T12:01:45;18.50;99.90
12119;DHT22;6123;48.864;9.200;2022-09-09T12:04:20;18.70;99.90
12119;DHT22;6123;48.864;9.200;2022-09-09T12:09:40;18.90;99.90
12119;DHT22;6123;48.864;9.200;2022-09-09T12:12:21;18.80;99.90
12119;DHT22;6123;48.864;9.200;2022-09-09T12:17:50;19.10;99.90
12119;DHT22;6123;48.864;9.200;2022-09-09T12:28:33;20.30;99.90
12119;DHT22;6123;48.864;9.200;2022-09-09T12:31:12;20.60;99.90
12119;DHT22;6123;48.864;9.200;2022-09-09T12:33:44;20.90;99.90
12119;DHT22;6123;48.864;9.200;2022-09-09T12:36:39;21.30;99.90
12119;DHT22;6123;48.864;9.200;2022-09-09T12:39:33;21.50;99.90
12119;DHT22;6123;48.864;9.200;2022-09-09T12:42:01;21.70;99.90
12119;DHT22;6123;48.864;9.200;2022-09-09T12:47:01;22.20;99.90
12119;DHT22;6123;48.864;9.200;2022-09-09T12:49:39;22.20;99.90
12119;DHT22;6123;48.864;9.200;2022-09-09T12:52:30;22.00;99.90
12119;DHT22;6123;48.864;9.200;2022-09-09T12:54:55;22.10;99.90
12119;DHT22;6123;48.864;9.200;2022-09-09T12:57:24;22.00;99.90
12119;DHT22;6123;48.864;9.200;2022-09-09T12:59:51;21.60;99.90
12119;DHT22;6123;48.864;9.200;2022-09-09T13:02:26;21.50;99.90
12119;DHT22;6123;48.864;9.200;2022-09-09T13:05:08;21.40;99.90
12119;DHT22;6123;48.864;9.200;2022-09-09T13:07:38;21.70;99.90
12119;DHT22;6123;48.864;9.200;2022-09-09T13:10:04;22.20;99.90
12119;DHT22;6123;48.864;9.200;2022-09-09T13:12:30;22.50;99.90
12119;DHT22;6123;48.864;9.200;2022-09-09T13:14:56;22.70;99.90
12119;DHT22;6123;48.864;9.200;2022-09-09T13:17:26;23.30;99.90
12119;DHT22;6123;48.864;9.200;2022-09-09T13:19:54;23.00;99.90
12119;DHT22;6123;48.864;9.200;2022-09-09T13:22:33;22.90;99.90
12119;DHT22;6123;48.864;9.200;2022-09-09T13:27:39;23.40;99.90
12119;DHT22;6123;48.864;9.200;2022-09-09T13:30:21;23.40;99.90
12119;DHT22;6123;48.864;9.200;2022-09-09T13:32:59;24.20;99.90
12119;DHT22;6123;48.864;9.200;2022-09-09T13:35:28;24.30;99.90
12119;DHT22;6123;48.864;9.200;2022-09-09T13:37:54;24.10;99.90
12119;DHT22;6123;48.864;9.200;2022-09-09T13:40:23;24.30;99.90
12119;DHT22;6123;48.864;9.200;2022-09-09T13:42:55;24.10;99.90
12119;DHT22;6123;48.864;9.200;2022-09-09T13:45:24;23.90;99.90
12119;DHT22;6123;48.864;9.200;2022-09-09T13:47:53;24.00;99.90
12119;DHT22;6123;48.864;9.200;2022-09-09T13:50:27;23.70;99.90
12119;DHT22;6123;48.864;9.200;2022-09-09T13:52:56;23.60;99.90
12119;DHT22;6123;48.864;9.200;2022-09-09T13:55:26;23.50;99.90
12119;DHT22;6123;48.864;9.200;2022-09-09T13:57:54;23.40;99.90
12119;DHT22;6123;48.864;9.200;2022-09-09T14:00:21;23.30;99.90
12119;DHT22;6123;48.864;9.200;2022-09-09T14:02:48;23.20;99.90
12119;DHT22;6123;48.864;9.200;2022-09-09T14:05:17;23.10;99.90
12119;DHT22;6123;48.864;9.200;2022-09-09T14:07:44;23.50;99.90
12119;DHT22;6123;48.864;9.200;2022-09-09T14:10:10;23.90;99.90
12119;DHT22;6123;48.864;9.200;2022-09-09T14:12:39;24.00;99.90
12119;DHT22;6123;48.864;9.200;2022-09-09T14:15:09;24.20;99.90
12119;DHT22;6123;48.864;9.200;2022-09-09T14:17:35;23.50;99.40
12119;DHT22;6123;48.864;9.200;2022-09-09T14:20:05;23.70;99.50
12119;DHT22;6123;48.864;9.200;2022-09-09T14:22:37;23.90;99.80
12119;DHT22;6123;48.864;9.200;2022-09-09T14:25:05;23.80;99.40
12119;DHT22;6123;48.864;9.200;2022-09-09T14:27:31;24.30;99.40
12119;DHT22;6123;48.864;9.200;2022-09-09T14:29:58;24.10;99.20
12119;DHT22;6123;48.864;9.200;2022-09-09T14:32:25;24.00;99.90
12119;DHT22;6123;48.864;9.200;2022-09-09T14:34:51;24.60;99.10
12119;DHT22;6123;48.864;9.200;2022-09-09T14:37:17;24.60;98.70
12119;DHT22;6123;48.864;9.200;2022-09-09T14:39:43;24.60;97.70
12119;DHT22;6123;48.864;9.200;2022-09-09T14:42:10;24.50;97.60
12119;DHT22;6123;48.864;9.200;2022-09-09T14:44:37;24.00;98.20
12119;DHT22;6123;48.864;9.200;2022-09-09T14:47:07;23.50;98.10
12119;DHT22;6123;48.864;9.200;2022-09-09T14:49:36;23.30;98.80
12119;DHT22;6123;48.864;9.200;2022-09-09T14:52:03;23.30;98.90
12119;DHT22;6123;48.864;9.200;2022-09-09T14:54:31;23.10;98.80
12119;DHT22;6123;48.864;9.200;2022-09-09T14:56:57;23.00;99.40
12119;DHT22;6123;48.864;9.200;2022-09-09T14:59:23;23.20;98.90
12119;DHT22;6123;48.864;9.200;2022-09-09T15:01:51;23.30;99.10
12119;DHT22;6123;48.864;9.200;2022-09-09T15:04:19;23.10;99.30
12119;DHT22;6123;48.864;9.200;2022-09-09T15:06:46;23.10;99.50
12119;DHT22;6123;48.864;9.200;2022-09-09T15:09:14;23.10;99.90
12119;DHT22;6123;48.864;9.200;2022-09-09T15:11:40;23.30;98.00
12119;DHT22;6123;48.864;9.200;2022-09-09T15:14:07;23.00;98.50
12119;DHT22;6123;48.864;9.200;2022-09-09T15:16:33;23.00;98.80
12119;DHT22;6123;48.864;9.200;2022-09-09T15:19:00;22.80;98.40
12119;DHT22;6123;48.864;9.200;2022-09-09T15:21:31;22.60;99.30
12119;DHT22;6123;48.864;9.200;2022-09-09T15:24:00;22.50;99.50
12119;DHT22;6123;48.864;9.200;2022-09-09T15:26:26;22.40;99.70
12119;DHT22;6123;48.864;9.200;2022-09-09T15:28:57;22.20;99.90
12119;DHT22;6123;48.864;9.200;2022-09-09T15:31:29;22.10;99.90
12119;DHT22;6123;48.864;9.200;2022-09-09T15:34:01;21.80;99.90
12119;DHT22;6123;48.864;9.200;2022-09-09T15:36:29;21.70;99.90
12119;DHT22;6123;48.864;9.200;2022-09-09T15:38:55;21.60;99.90
12119;DHT22;6123;48.864;9.200;2022-09-09T15:41:22;21.60;99.90
12119;DHT22;6123;48.864;9.200;2022-09-09T15:43:49;21.50;99.90
12119;DHT22;6123;48.864;9.200;2022-09-09T15:48:43;21.70;99.90
12119;DHT22;6123;48.864;9.200;2022-09-09T15:51:12;21.70;99.90
12119;DHT22;6123;48.864;9.200;2022-09-09T15:53:40;21.60;99.90
12119;DHT22;6123;48.864;9.200;2022-09-09T15:56:06;21.50;99.90
12119;DHT22;6123;48.864;9.200;2022-09-09T15:58:35;21.30;99.90
12119;DHT22;6123;48.864;9.200;2022-09-09T16:01:09;21.30;99.90
12119;DHT22;6123;48.864;9.200;2022-09-09T16:03:40;21.40;99.90
12119;DHT22;6123;48.864;9.200;2022-09-09T16:06:12;21.40;99.90
12119;DHT22;6123;48.864;9.200;2022-09-09T16:08:40;21.20;99.90
12119;DHT22;6123;48.864;9.200;2022-09-09T16:11:07;21.10;99.90
12119;DHT22;6123;48.864;9.200;2022-09-09T16:13:37;20.90;99.90
12119;DHT22;6123;48.864;9.200;2022-09-09T16:16:05;20.80;99.90
12119;DHT22;6123;48.864;9.200;2022-09-09T16:18:41;21.10;99.90
12119;DHT22;6123;48.864;9.200;2022-09-09T16:21:20;20.90;99.90
12119;DHT22;6123;48.864;9.200;2022-09-09T16:23:47;20.90;99.90
12119;DHT22;6123;48.864;9.200;2022-09-09T16:26:15;20.30;99.90
12119;DHT22;6123;48.864;9.200;2022-09-09T16:28:42;19.90;99.90
12119;DHT22;6123;48.864;9.200;2022-09-09T16:31:13;19.10;99.90
12119;DHT22;6123;48.864;9.200;2022-09-09T16:33:39;18.40;99.90
12119;DHT22;6123;48.864;9.200;2022-09-09T16:36:10;17.80;99.90
12119;DHT22;6123;48.864;9.200;2022-09-09T16:38:37;17.60;99.90
12119;DHT22;6123;48.864;9.200;2022-09-09T16:41:04;17.40;99.90
12119;DHT22;6123;48.864;9.200;2022-09-09T16:43:34;17.10;99.90
12119;DHT22;6123;48.864;9.200;2022-09-09T16:46:08;17.00;99.90
12119;DHT22;6123;48.864;9.200;2022-09-09T16:48:36;17.00;99.90
12119;DHT22;6123;48.864;9.200;2022-09-09T16:51:06;16.90;99.90
12119;DHT22;6123;48.864;9.200;2022-09-09T16:53:33;16.90;99.90
12119;DHT22;6123;48.864;9.200;2022-09-09T16:56:05;17.10;99.90
12119;DHT22;6123;48.864;9.200;2022-09-09T16:58:31;17.10;99.90
12119;DHT22;6123;48.864;9.200;2022-09-09T17:01:00;17.00;99.90
12119;DHT22;6123;48.864;9.200;2022-09-09T17:03:30;16.90;99.90
12119;DHT22;6123;48.864;9.200;2022-09-09T17:05:57;17.00;99.90
12119;DHT22;6123;48.864;9.200;2022-09-09T17:08:24;17.10;99.90
12119;DHT22;6123;48.864;9.200;2022-09-09T17:10:49;17.10;99.90
12119;DHT22;6123;48.864;9.200;2022-09-09T17:13:15;17.20;99.90
12119;DHT22;6123;48.864;9.200;2022-09-09T17:15:43;17.20;99.90
12119;DHT22;6123;48.864;9.200;2022-09-09T17:18:10;17.20;99.90
12119;DHT22;6123;48.864;9.200;2022-09-09T17:20:40;17.30;99.90
12119;DHT22;6123;48.864;9.200;2022-09-09T17:23:08;17.20;99.90
12119;DHT22;6123;48.864;9.200;2022-09-09T17:25:35;17.30;99.90
12119;DHT22;6123;48.864;9.200;2022-09-09T17:28:01;17.30;99.90
12119;DHT22;6123;48.864;9.200;2022-09-09T17:30:33;17.20;99.90
12119;DHT22;6123;48.864;9.200;2022-09-09T17:33:00;17.10;99.90
12119;DHT22;6123;48.864;9.200;2022-09-09T17:35:25;16.90;99.90
12119;DHT22;6123;48.864;9.200;2022-09-09T17:37:53;16.90;99.90
12119;DHT22;6123;48.864;9.200;2022-09-09T17:40:20;16.90;99.90
12119;DHT22;6123;48.864;9.200;2022-09-09T17:42:48;16.80;99.90
12119;DHT22;6123;48.864;9.200;2022-09-09T17:45:16;17.00;99.90
12119;DHT22;6123;48.864;9.200;2022-09-09T17:47:42;17.10;99.90
12119;DHT22;6123;48.864;9.200;2022-09-09T17:50:09;17.00;99.90
12119;DHT22;6123;48.864;9.200;2022-09-09T17:52:38;17.10;99.90
12119;DHT22;6123;48.864;9.200;2022-09-09T17:55:04;17.10;99.90
12119;DHT22;6123;48.864;9.200;2022-09-09T17:57:34;17.20;99.90
12119;DHT22;6123;48.864;9.200;2022-09-09T18:00:00;17.20;99.90
12119;DHT22;6123;48.864;9.200;2022-09-09T18:02:28;17.20;99.90
12119;DHT22;6123;48.864;9.200;2022-09-09T18:04:54;17.20;99.90
12119;DHT22;6123;48.864;9.200;2022-09-09T18:07:19;17.20;99.90
12119;DHT22;6123;48.864;9.200;2022-09-09T18:09:45;17.10;99.90
12119;DHT22;6123;48.864;9.200;2022-09-09T18:12:11;17.10;99.90
12119;DHT22;6123;48.864;9.200;2022-09-09T18:14:37;17.10;99.90
12119;DHT22;6123;48.864;9.200;2022-09-09T18:17:03;17.10;99.90
12119;DHT22;6123;48.864;9.200;2022-09-09T18:19:30;17.10;99.90
12119;DHT22;6123;48.864;9.200;2022-09-09T18:21:57;17.30;99.90
12119;DHT22;6123;48.864;9.200;2022-09-09T18:24:23;17.20;99.90
12119;DHT22;6123;48.864;9.200;2022-09-09T18:26:53;17.20;99.90
12119;DHT22;6123;48.864;9.200;2022-09-09T18:29:22;17.20;99.90